createdAt,value
2023-04-01T00:04:28.554Z,10.50
2023-04-01T00:09:32.192Z,10.43
2023-04-01T00:14:36.381Z,10.40
2023-04-01T00:19:40.704Z,11.39
2023-04-01T00:24:43.785Z,12.59
2023-04-01T00:29:49.131Z,13.26
2023-04-01T00:34:53.362Z,13.38
2023-04-01T00:39:57.005Z,12.48
2023-04-01T00:45:21.409Z,12.44
2023-04-01T00:50:26.664Z,12.55
2023-04-01T00:55:33.734Z,12.82
2023-04-01T01:00:38.640Z,13.10
2023-04-01T01:06:11.689Z,13.39
2023-04-01T01:11:21.309Z,13.32
2023-04-01T01:16:31.692Z,13.12
2023-04-01T01:22:08.365Z,12.95
2023-04-01T01:27:12.966Z,12.82
2023-04-01T01:32:54.047Z,13.21
2023-04-01T01:38:02.710Z,13.27
2023-04-01T01:43:10.150Z,13.42
2023-04-01T01:48:13.870Z,13.10
2023-04-01T01:53:17.535Z,12.41
2023-04-01T01:58:30.656Z,12.35
2023-04-01T02:03:40.472Z,12.97
2023-04-01T02:08:49.639Z,13.05
2023-04-01T02:14:15.239Z,12.56
2023-04-01T02:19:23.940Z,12.38
2023-04-01T02:24:32.959Z,12.36
2023-04-01T02:29:36.439Z,11.89
2023-04-01T02:34:44.777Z,11.68
2023-04-01T02:39:48.375Z,11.37
2023-04-01T02:44:52.390Z,11.30
2023-04-01T02:49:59.507Z,10.89
2023-04-01T02:55:03.606Z,10.97
2023-04-01T03:00:12.415Z,10.82
2023-04-01T03:05:15.880Z,10.77
2023-04-01T03:10:20.164Z,10.49
2023-04-01T03:15:24.030Z,10.14
2023-04-01T03:20:27.891Z,10.22
2023-04-01T03:25:32.292Z,9.61
2023-04-01T03:30:36.698Z,9.66
2023-04-01T03:35:40.054Z,9.47
2023-04-01T03:40:47.281Z,9.31
2023-04-01T03:45:52.964Z,9.12
2023-04-01T03:50:56.524Z,9.09
2023-04-01T03:56:04.387Z,9.26
2023-04-01T04:01:22.947Z,8.98
2023-04-01T04:06:30.513Z,9.23
2023-04-01T04:11:37.183Z,9.66
2023-04-01T04:16:41.322Z,9.93
2023-04-01T04:21:45.741Z,9.84
2023-04-01T04:26:51.200Z,9.73
2023-04-01T04:31:55.410Z,9.55
2023-04-01T04:37:01.882Z,9.35
2023-04-01T04:42:09.474Z,9.48
2023-04-01T04:47:12.926Z,9.26
2023-04-01T04:52:17.126Z,9.06
2023-04-01T04:57:20.986Z,8.84
2023-04-01T05:02:31.598Z,8.77
2023-04-01T05:07:36.479Z,8.93
2023-04-01T05:12:40.187Z,8.94
2023-04-01T05:17:46.751Z,8.87
2023-04-01T05:22:51.409Z,9.12
2023-04-01T05:27:56.499Z,9.19
2023-04-01T05:33:00.976Z,9.19
2023-04-01T05:38:06.490Z,9.23
2023-04-01T05:43:11.275Z,9.44
2023-04-01T05:48:15.309Z,9.61
2023-04-01T05:53:19.155Z,9.85
2023-04-01T05:58:23.028Z,10.12
2023-04-01T06:03:27.195Z,10.42
2023-04-01T06:08:34.411Z,10.98
2023-04-01T06:13:45.094Z,11.33
2023-04-01T06:19:30.656Z,11.93
2023-04-01T06:25:12.408Z,12.63
2023-04-01T06:30:37.010Z,14.65
2023-04-01T06:36:24.510Z,15.09
2023-04-01T06:42:06.511Z,16.01
2023-04-01T06:47:39.839Z,16.34
2023-04-01T06:53:27.960Z,18.49
2023-04-01T06:59:00.527Z,19.28
2023-04-01T07:04:13.383Z,20.58
2023-04-01T07:09:23.012Z,21.21
2023-04-01T07:14:46.351Z,21.58
2023-04-01T07:20:00.244Z,22.11
2023-04-01T07:25:13.268Z,21.79
2023-04-01T07:30:23.032Z,21.66
2023-04-01T07:35:52.088Z,21.96
2023-04-01T07:41:01.243Z,22.05
2023-04-01T07:46:11.813Z,23.31
2023-04-01T07:51:24.542Z,23.00
2023-04-01T07:57:02.603Z,21.55
2023-04-01T08:02:23.330Z,20.99
2023-04-01T08:08:16.669Z,23.27
2023-04-01T08:14:03.390Z,23.89
2023-04-01T08:19:50.641Z,23.75
2023-04-01T08:25:01.217Z,23.43
2023-04-01T08:30:19.349Z,23.16
2023-04-01T08:35:59.032Z,23.22
2023-04-01T08:41:10.516Z,23.56
2023-04-01T08:46:54.308Z,23.70
2023-04-01T08:52:23.813Z,23.98
2023-04-01T08:57:50.458Z,24.31
2023-04-01T09:03:25.431Z,22.61
2023-04-01T09:08:41.099Z,23.59
2023-04-01T09:13:55.271Z,23.15
2023-04-01T09:19:35.842Z,23.37
2023-04-01T09:24:54.201Z,23.53
2023-04-01T09:30:24.622Z,24.49
2023-04-01T09:35:38.309Z,23.69
2023-04-01T09:41:27.263Z,25.34
2023-04-01T09:46:50.569Z,25.29
2023-04-01T09:52:22.027Z,25.89
2023-04-01T09:58:14.625Z,25.67
2023-04-01T10:04:00.003Z,25.49
2023-04-01T10:09:26.186Z,24.84
2023-04-01T10:15:11.096Z,25.86
2023-04-01T10:20:14.664Z,25.47
2023-04-01T10:25:46.802Z,24.92
2023-04-01T10:31:19.752Z,25.61
2023-04-01T10:36:38.062Z,25.41
2023-04-01T10:42:06.335Z,26.97
2023-04-01T10:47:57.417Z,25.98
2023-04-01T10:53:33.569Z,26.35
2023-04-01T10:59:34.364Z,26.26
2023-04-01T11:05:34.543Z,25.82
2023-04-01T11:11:14.883Z,26.17
2023-04-01T11:16:49.306Z,26.43
2023-04-01T11:22:30.702Z,26.44
2023-04-01T11:28:36.920Z,26.76
2023-04-01T11:33:57.074Z,27.20
2023-04-01T11:39:36.097Z,27.10
2023-04-01T11:45:15.425Z,26.55
2023-04-01T11:50:43.331Z,25.87
2023-04-01T11:55:50.696Z,27.40
2023-04-01T12:01:36.335Z,26.78
2023-04-01T12:06:39.717Z,27.61
2023-04-01T12:11:43.712Z,27.31
2023-04-01T12:17:00.993Z,26.43
2023-04-01T12:22:17.818Z,27.48
2023-04-01T12:27:43.065Z,26.39
2023-04-01T12:32:58.894Z,27.29
2023-04-01T12:38:39.958Z,26.86
2023-04-01T12:44:03.884Z,25.77
2023-04-01T12:49:25.888Z,24.46
2023-04-01T13:08:43.737Z,23.18
2023-04-01T13:14:07.352Z,23.32
2023-04-01T13:19:29.481Z,23.42
2023-04-01T13:24:51.947Z,22.95
2023-04-01T13:29:56.219Z,22.32
2023-04-01T13:35:21.551Z,22.60
2023-04-01T13:40:46.796Z,22.73
2023-04-01T13:46:08.675Z,22.53
2023-04-01T13:51:42.361Z,22.53
2023-04-01T13:57:10.840Z,21.35
2023-04-01T14:02:39.362Z,21.13
2023-04-01T14:08:01.070Z,20.81
2023-04-01T14:13:25.853Z,20.91
2023-04-01T14:18:43.662Z,20.38
2023-04-01T14:24:10.235Z,20.25
2023-04-01T14:29:34.961Z,20.54
2023-04-01T14:35:17.290Z,20.07
2023-04-01T14:40:40.315Z,19.90
2023-04-01T14:46:05.223Z,19.93
2023-04-01T14:51:32.583Z,20.39
2023-04-01T14:56:45.826Z,20.46
2023-04-01T15:02:13.181Z,20.10
2023-04-01T15:08:03.626Z,20.02
2023-04-01T15:13:16.461Z,19.37
2023-04-01T15:18:40.387Z,19.06
2023-04-01T15:23:59.697Z,19.45
2023-04-01T15:29:28.167Z,19.73
2023-04-01T15:35:01.635Z,19.40
2023-04-01T15:40:40.513Z,19.09
2023-04-01T15:45:50.750Z,18.67
2023-04-01T15:50:57.839Z,18.48
2023-04-01T15:56:43.615Z,18.50
2023-04-01T16:02:13.105Z,18.62
2023-04-01T16:07:50.559Z,18.13
2023-04-01T16:13:21.361Z,17.56
2023-04-01T16:18:33.921Z,16.45
2023-04-01T16:23:50.132Z,16.01
2023-04-01T16:29:21.627Z,16.08
2023-04-01T16:34:45.553Z,16.05
2023-04-01T16:40:12.258Z,15.98
2023-04-01T16:45:34.813Z,15.70
2023-04-01T16:50:47.956Z,15.49
2023-04-01T16:56:04.147Z,15.30
2023-04-01T17:02:01.392Z,15.10
2023-04-01T17:07:39.387Z,14.68
2023-04-01T17:13:01.563Z,14.64
2023-04-01T17:18:34.387Z,14.61
2023-04-01T17:23:40.085Z,14.38
2023-04-01T17:29:11.306Z,14.13
2023-04-01T17:34:43.836Z,14.00
2023-04-01T17:40:23.148Z,13.63
2023-04-01T17:45:49.857Z,13.48
2023-04-01T17:51:25.337Z,13.48
2023-04-01T17:56:51.021Z,13.61
2023-04-01T18:02:15.149Z,13.35
2023-04-01T18:07:36.821Z,13.17
2023-04-01T18:12:46.468Z,13.08
2023-04-01T18:18:20.852Z,12.98
2023-04-01T18:23:52.032Z,13.03
2023-04-01T18:29:20.474Z,12.74
2023-04-01T18:34:58.454Z,12.66
2023-04-01T18:40:20.009Z,12.52
2023-04-01T18:45:31.211Z,12.36
2023-04-01T18:50:48.960Z,12.07
2023-04-01T18:56:00.838Z,11.84
2023-04-01T19:01:06.991Z,11.89
2023-04-01T19:06:22.406Z,12.13
2023-04-01T19:11:53.092Z,13.14
2023-04-01T19:17:17.509Z,13.18
2023-04-01T19:22:43.975Z,13.20
2023-04-01T19:27:53.505Z,13.65
2023-04-01T19:33:21.100Z,14.06
2023-04-01T19:38:41.383Z,14.16
2023-04-01T19:44:06.436Z,14.24
2023-04-01T19:49:38.578Z,14.23
2023-04-01T19:54:54.972Z,14.39
2023-04-01T20:00:17.592Z,14.56
2023-04-01T20:05:51.628Z,14.19
2023-04-01T20:11:09.385Z,13.69
2023-04-01T20:16:14.501Z,13.43
2023-04-01T20:21:18.163Z,13.36
2023-04-01T20:26:27.131Z,13.26
2023-04-01T20:31:56.149Z,13.14
2023-04-01T20:37:14.691Z,13.01
2023-04-01T20:42:57.198Z,12.93
2023-04-01T20:48:23.825Z,12.66
2023-04-01T20:53:51.319Z,12.67
2023-04-01T20:59:11.925Z,12.65
2023-04-01T21:04:37.482Z,12.45
2023-04-01T21:10:11.066Z,12.43
2023-04-01T21:15:31.938Z,12.39
2023-04-01T21:20:41.148Z,12.36
2023-04-01T21:26:03.089Z,12.29
2023-04-01T21:31:35.166Z,12.32
2023-04-01T21:37:24.912Z,12.29
2023-04-01T21:42:39.910Z,12.24
2023-04-01T21:48:20.857Z,12.29
2023-04-01T21:54:01.370Z,12.14
2023-04-01T21:59:48.039Z,12.23
2023-04-01T22:05:23.708Z,12.02
2023-04-01T22:10:55.342Z,11.90
2023-04-01T22:16:29.088Z,11.88
2023-04-01T22:21:46.430Z,11.86
2023-04-01T22:26:55.718Z,11.90
2023-04-01T22:32:08.721Z,11.80
2023-04-01T22:37:31.169Z,11.72
2023-04-01T22:42:40.116Z,11.66
2023-04-01T22:48:26.889Z,11.67
2023-04-01T22:53:48.861Z,11.55
2023-04-01T22:59:12.557Z,11.48
2023-04-01T23:04:19.534Z,11.46
2023-04-01T23:09:25.170Z,11.49
2023-04-01T23:14:38.288Z,11.28
2023-04-01T23:20:05.500Z,11.18
2023-04-01T23:25:30.282Z,11.13
2023-04-01T23:30:53.597Z,11.09
2023-04-01T23:36:13.106Z,11.13
2023-04-01T23:41:27.468Z,11.11
2023-04-01T23:46:35.392Z,11.08
2023-04-01T23:51:47.852Z,10.96
2023-04-01T23:56:56.614Z,10.81
